sensor_id;sensor_type;location;lat;lon;timestamp;P1;durP1;ratioP1;P2;durP2;ratioP2
74530;SDS011;63010;55.668;37.878;2022-10-16T00:01:22;12.30;;;4.65;;
74530;SDS011;63010;55.668;37.878;2022-10-16T00:03:49;10.50;;;4.90;;
74530;SDS011;63010;55.668;37.878;2022-10-16T00:06:15;9.88;;;5.10;;
74530;SDS011;63010;55.668;37.878;2022-10-16T00:08:43;13.60;;;4.93;;
74530;SDS011;63010;55.668;37.878;2022-10-16T00:11:19;12.00;;;5.05;;
74530;SDS011;63010;55.668;37.878;2022-10-16T00:13:47;9.00;;;4.35;;
74530;SDS011;63010;55.668;37.878;2022-10-16T00:16:14;12.82;;;4.95;;
74530;SDS011;63010;55.668;37.878;2022-10-16T00:18:40;11.35;;;4.65;;
74530;SDS011;63010;55.668;37.878;2022-10-16T00:21:08;7.38;;;4.28;;
74530;SDS011;63010;55.668;37.878;2022-10-16T00:24:04;9.65;;;4.15;;
74530;SDS011;63010;55.668;37.878;2022-10-16T00:26:32;12.68;;;4.70;;
74530;SDS011;63010;55.668;37.878;2022-10-16T00:28:59;20.65;;;5.30;;
74530;SDS011;63010;55.668;37.878;2022-10-16T00:31:24;10.02;;;4.85;;
74530;SDS011;63010;55.668;37.878;2022-10-16T00:33:50;11.27;;;5.00;;
74530;SDS011;63010;55.668;37.878;2022-10-16T00:36:18;12.38;;;4.57;;
74530;SDS011;63010;55.668;37.878;2022-10-16T00:38:45;12.43;;;4.63;;
74530;SDS011;63010;55.668;37.878;2022-10-16T00:41:12;13.20;;;4.88;;
74530;SDS011;63010;55.668;37.878;2022-10-16T00:43:41;10.70;;;5.15;;
74530;SDS011;63010;55.668;37.878;2022-10-16T00:48:46;9.85;;;5.03;;
74530;SDS011;63010;55.668;37.878;2022-10-16T00:51:22;14.35;;;5.50;;
74530;SDS011;63010;55.668;37.878;2022-10-16T00:53:49;12.68;;;4.85;;
74530;SDS011;63010;55.668;37.878;2022-10-16T00:56:15;7.85;;;4.75;;
74530;SDS011;63010;55.668;37.878;2022-10-16T00:58:41;10.52;;;5.00;;
74530;SDS011;63010;55.668;37.878;2022-10-16T01:01:07;12.80;;;5.35;;
74530;SDS011;63010;55.668;37.878;2022-10-16T01:03:34;12.50;;;5.53;;
74530;SDS011;63010;55.668;37.878;2022-10-16T01:09:00;9.15;;;4.72;;
74530;SDS011;63010;55.668;37.878;2022-10-16T01:11:35;13.00;;;5.38;;
74530;SDS011;63010;55.668;37.878;2022-10-16T01:14:15;10.80;;;5.03;;
74530;SDS011;63010;55.668;37.878;2022-10-16T01:25:47;10.32;;;5.20;;
74530;SDS011;63010;55.668;37.878;2022-10-16T01:28:14;10.02;;;5.13;;
74530;SDS011;63010;55.668;37.878;2022-10-16T01:30:43;12.75;;;5.63;;
74530;SDS011;63010;55.668;37.878;2022-10-16T01:36:12;11.10;;;6.55;;
74530;SDS011;63010;55.668;37.878;2022-10-16T01:38:41;11.80;;;5.10;;
74530;SDS011;63010;55.668;37.878;2022-10-16T01:41:12;10.48;;;5.40;;
74530;SDS011;63010;55.668;37.878;2022-10-16T01:44:04;16.08;;;6.20;;
74530;SDS011;63010;55.668;37.878;2022-10-16T01:46:33;15.30;;;5.80;;
74530;SDS011;63010;55.668;37.878;2022-10-16T01:49:02;13.73;;;5.78;;
74530;SDS011;63010;55.668;37.878;2022-10-16T01:51:30;13.38;;;5.65;;
74530;SDS011;63010;55.668;37.878;2022-10-16T01:53:58;12.50;;;5.25;;
74530;SDS011;63010;55.668;37.878;2022-10-16T01:56:26;15.98;;;6.10;;
74530;SDS011;63010;55.668;37.878;2022-10-16T01:58:58;13.50;;;5.57;;
74530;SDS011;63010;55.668;37.878;2022-10-16T02:01:33;12.25;;;5.63;;
74530;SDS011;63010;55.668;37.878;2022-10-16T02:04:03;11.52;;;6.10;;
74530;SDS011;63010;55.668;37.878;2022-10-16T02:06:34;15.60;;;5.78;;
74530;SDS011;63010;55.668;37.878;2022-10-16T02:09:01;13.98;;;5.45;;
74530;SDS011;63010;55.668;37.878;2022-10-16T02:11:26;13.57;;;6.30;;
74530;SDS011;63010;55.668;37.878;2022-10-16T02:14:13;10.73;;;5.15;;
74530;SDS011;63010;55.668;37.878;2022-10-16T02:16:39;20.85;;;6.10;;
74530;SDS011;63010;55.668;37.878;2022-10-16T02:19:08;12.80;;;6.03;;
74530;SDS011;63010;55.668;37.878;2022-10-16T02:26:57;9.88;;;5.20;;
74530;SDS011;63010;55.668;37.878;2022-10-16T02:29:39;11.38;;;5.70;;
74530;SDS011;63010;55.668;37.878;2022-10-16T02:32:13;12.35;;;6.13;;
74530;SDS011;63010;55.668;37.878;2022-10-16T02:34:45;13.15;;;5.22;;
74530;SDS011;63010;55.668;37.878;2022-10-16T02:37:13;12.48;;;5.82;;
74530;SDS011;63010;55.668;37.878;2022-10-16T02:39:39;12.90;;;6.00;;
74530;SDS011;63010;55.668;37.878;2022-10-16T02:42:10;13.55;;;5.47;;
74530;SDS011;63010;55.668;37.878;2022-10-16T02:44:39;12.35;;;5.57;;
74530;SDS011;63010;55.668;37.878;2022-10-16T02:47:05;11.23;;;5.32;;
74530;SDS011;63010;55.668;37.878;2022-10-16T02:49:31;10.27;;;5.13;;
74530;SDS011;63010;55.668;37.878;2022-10-16T02:51:56;10.45;;;6.60;;
74530;SDS011;63010;55.668;37.878;2022-10-16T02:54:22;10.75;;;5.85;;
74530;SDS011;63010;55.668;37.878;2022-10-16T02:56:48;14.68;;;6.10;;
74530;SDS011;63010;55.668;37.878;2022-10-16T02:59:14;8.65;;;6.15;;
74530;SDS011;63010;55.668;37.878;2022-10-16T03:01:39;11.57;;;6.03;;
74530;SDS011;63010;55.668;37.878;2022-10-16T03:04:05;11.15;;;5.88;;
74530;SDS011;63010;55.668;37.878;2022-10-16T03:06:30;10.18;;;6.05;;
74530;SDS011;63010;55.668;37.878;2022-10-16T03:08:56;12.10;;;6.32;;
74530;SDS011;63010;55.668;37.878;2022-10-16T03:11:21;14.02;;;6.25;;
74530;SDS011;63010;55.668;37.878;2022-10-16T03:13:47;10.13;;;5.32;;
74530;SDS011;63010;55.668;37.878;2022-10-16T03:16:13;12.00;;;5.40;;
74530;SDS011;63010;55.668;37.878;2022-10-16T03:18:38;10.50;;;5.60;;
74530;SDS011;63010;55.668;37.878;2022-10-16T03:21:04;9.18;;;4.85;;
74530;SDS011;63010;55.668;37.878;2022-10-16T03:23:29;12.23;;;4.93;;
74530;SDS011;63010;55.668;37.878;2022-10-16T03:25:55;9.55;;;5.25;;
74530;SDS011;63010;55.668;37.878;2022-10-16T03:28:20;9.40;;;5.13;;
74530;SDS011;63010;55.668;37.878;2022-10-16T03:30:46;11.70;;;5.45;;
74530;SDS011;63010;55.668;37.878;2022-10-16T03:33:11;11.00;;;5.80;;
74530;SDS011;63010;55.668;37.878;2022-10-16T03:35:37;9.70;;;4.90;;
74530;SDS011;63010;55.668;37.878;2022-10-16T03:38:02;11.88;;;5.40;;
74530;SDS011;63010;55.668;37.878;2022-10-16T03:40:28;12.95;;;5.50;;
74530;SDS011;63010;55.668;37.878;2022-10-16T03:42:54;14.13;;;5.70;;
74530;SDS011;63010;55.668;37.878;2022-10-16T03:45:22;11.93;;;5.82;;
74530;SDS011;63010;55.668;37.878;2022-10-16T03:47:47;16.38;;;6.28;;
74530;SDS011;63010;55.668;37.878;2022-10-16T03:50:13;12.85;;;5.93;;
74530;SDS011;63010;55.668;37.878;2022-10-16T03:52:39;15.68;;;7.32;;
74530;SDS011;63010;55.668;37.878;2022-10-16T03:55:04;13.38;;;5.63;;
74530;SDS011;63010;55.668;37.878;2022-10-16T03:57:30;16.45;;;6.13;;
74530;SDS011;63010;55.668;37.878;2022-10-16T03:59:56;16.08;;;6.10;;
74530;SDS011;63010;55.668;37.878;2022-10-16T04:02:22;14.02;;;5.85;;
74530;SDS011;63010;55.668;37.878;2022-10-16T04:04:48;14.05;;;5.20;;
74530;SDS011;63010;55.668;37.878;2022-10-16T04:07:13;18.95;;;6.07;;
74530;SDS011;63010;55.668;37.878;2022-10-16T04:09:39;15.23;;;5.70;;
74530;SDS011;63010;55.668;37.878;2022-10-16T04:12:04;11.45;;;6.40;;
74530;SDS011;63010;55.668;37.878;2022-10-16T04:14:30;14.45;;;7.35;;
74530;SDS011;63010;55.668;37.878;2022-10-16T04:16:55;15.57;;;5.95;;
74530;SDS011;63010;55.668;37.878;2022-10-16T04:19:21;12.02;;;5.50;;
74530;SDS011;63010;55.668;37.878;2022-10-16T04:21:46;16.17;;;6.15;;
74530;SDS011;63010;55.668;37.878;2022-10-16T04:24:12;13.82;;;5.45;;
74530;SDS011;63010;55.668;37.878;2022-10-16T04:26:38;13.20;;;5.57;;
74530;SDS011;63010;55.668;37.878;2022-10-16T04:29:03;16.65;;;5.55;;
74530;SDS011;63010;55.668;37.878;2022-10-16T04:31:29;13.23;;;6.18;;
74530;SDS011;63010;55.668;37.878;2022-10-16T04:33:54;14.95;;;6.07;;
74530;SDS011;63010;55.668;37.878;2022-10-16T04:36:20;12.02;;;5.10;;
74530;SDS011;63010;55.668;37.878;2022-10-16T04:38:46;17.42;;;7.72;;
74530;SDS011;63010;55.668;37.878;2022-10-16T04:41:11;14.30;;;5.80;;
74530;SDS011;63010;55.668;37.878;2022-10-16T04:43:37;15.38;;;6.03;;
74530;SDS011;63010;55.668;37.878;2022-10-16T04:46:02;14.15;;;6.72;;
74530;SDS011;63010;55.668;37.878;2022-10-16T04:48:30;13.32;;;7.13;;
74530;SDS011;63010;55.668;37.878;2022-10-16T04:50:55;14.55;;;5.80;;
74530;SDS011;63010;55.668;37.878;2022-10-16T04:53:21;15.27;;;5.75;;
74530;SDS011;63010;55.668;37.878;2022-10-16T04:55:47;14.60;;;5.65;;
74530;SDS011;63010;55.668;37.878;2022-10-16T04:58:13;15.98;;;5.68;;
74530;SDS011;63010;55.668;37.878;2022-10-16T05:00:38;14.75;;;5.40;;
74530;SDS011;63010;55.668;37.878;2022-10-16T05:03:04;16.05;;;5.18;;
74530;SDS011;63010;55.668;37.878;2022-10-16T05:05:33;13.63;;;6.13;;
74530;SDS011;63010;55.668;37.878;2022-10-16T05:07:59;17.05;;;6.95;;
74530;SDS011;63010;55.668;37.878;2022-10-16T05:10:25;11.18;;;5.65;;
74530;SDS011;63010;55.668;37.878;2022-10-16T05:12:50;16.92;;;6.45;;
74530;SDS011;63010;55.668;37.878;2022-10-16T05:15:16;14.30;;;5.85;;
74530;SDS011;63010;55.668;37.878;2022-10-16T05:17:42;17.20;;;6.72;;
74530;SDS011;63010;55.668;37.878;2022-10-16T05:20:08;13.00;;;6.22;;
74530;SDS011;63010;55.668;37.878;2022-10-16T05:22:33;18.08;;;6.30;;
74530;SDS011;63010;55.668;37.878;2022-10-16T05:24:59;16.15;;;5.97;;
74530;SDS011;63010;55.668;37.878;2022-10-16T05:27:24;16.98;;;5.70;;
74530;SDS011;63010;55.668;37.878;2022-10-16T05:29:50;15.20;;;6.60;;
74530;SDS011;63010;55.668;37.878;2022-10-16T05:32:16;15.82;;;6.47;;
74530;SDS011;63010;55.668;37.878;2022-10-16T05:34:42;11.95;;;5.85;;
74530;SDS011;63010;55.668;37.878;2022-10-16T05:37:08;16.40;;;5.75;;
74530;SDS011;63010;55.668;37.878;2022-10-16T05:39:34;11.57;;;5.63;;
74530;SDS011;63010;55.668;37.878;2022-10-16T05:42:00;13.38;;;5.68;;
74530;SDS011;63010;55.668;37.878;2022-10-16T05:44:25;17.25;;;7.00;;
74530;SDS011;63010;55.668;37.878;2022-10-16T05:46:51;13.20;;;6.45;;
74530;SDS011;63010;55.668;37.878;2022-10-16T05:49:16;14.02;;;5.88;;
74530;SDS011;63010;55.668;37.878;2022-10-16T05:51:42;13.30;;;6.13;;
74530;SDS011;63010;55.668;37.878;2022-10-16T05:54:08;16.08;;;6.30;;
74530;SDS011;63010;55.668;37.878;2022-10-16T05:56:34;17.20;;;6.82;;
74530;SDS011;63010;55.668;37.878;2022-10-16T05:58:59;13.35;;;6.05;;
74530;SDS011;63010;55.668;37.878;2022-10-16T06:01:25;15.73;;;6.03;;
74530;SDS011;63010;55.668;37.878;2022-10-16T06:03:51;17.95;;;6.88;;
74530;SDS011;63010;55.668;37.878;2022-10-16T06:06:18;13.32;;;6.25;;
74530;SDS011;63010;55.668;37.878;2022-10-16T06:08:46;8.88;;;5.60;;
74530;SDS011;63010;55.668;37.878;2022-10-16T06:11:14;10.25;;;6.15;;
74530;SDS011;63010;55.668;37.878;2022-10-16T06:13:42;12.32;;;5.93;;
74530;SDS011;63010;55.668;37.878;2022-10-16T06:16:08;18.40;;;6.38;;
74530;SDS011;63010;55.668;37.878;2022-10-16T06:18:35;12.93;;;5.82;;
74530;SDS011;63010;55.668;37.878;2022-10-16T06:21:06;11.57;;;5.97;;
74530;SDS011;63010;55.668;37.878;2022-10-16T06:23:37;18.13;;;6.40;;
74530;SDS011;63010;55.668;37.878;2022-10-16T06:26:06;15.77;;;7.00;;
74530;SDS011;63010;55.668;37.878;2022-10-16T06:28:33;17.42;;;6.45;;
74530;SDS011;63010;55.668;37.878;2022-10-16T06:30:59;20.65;;;6.95;;
74530;SDS011;63010;55.668;37.878;2022-10-16T06:33:26;12.23;;;6.45;;
74530;SDS011;63010;55.668;37.878;2022-10-16T06:35:52;14.30;;;6.50;;
74530;SDS011;63010;55.668;37.878;2022-10-16T06:38:17;17.42;;;6.88;;
74530;SDS011;63010;55.668;37.878;2022-10-16T06:40:43;13.75;;;6.35;;
74530;SDS011;63010;55.668;37.878;2022-10-16T06:43:08;12.60;;;6.18;;
74530;SDS011;63010;55.668;37.878;2022-10-16T06:45:34;12.55;;;6.53;;
74530;SDS011;63010;55.668;37.878;2022-10-16T06:47:59;14.07;;;6.93;;
74530;SDS011;63010;55.668;37.878;2022-10-16T06:50:25;15.20;;;6.85;;
74530;SDS011;63010;55.668;37.878;2022-10-16T06:52:50;17.00;;;7.15;;
74530;SDS011;63010;55.668;37.878;2022-10-16T06:55:16;11.75;;;6.30;;
74530;SDS011;63010;55.668;37.878;2022-10-16T06:57:42;14.20;;;6.32;;
74530;SDS011;63010;55.668;37.878;2022-10-16T07:00:09;13.50;;;6.15;;
74530;SDS011;63010;55.668;37.878;2022-10-16T07:02:34;14.95;;;6.07;;
74530;SDS011;63010;55.668;37.878;2022-10-16T07:05:00;18.77;;;6.90;;
74530;SDS011;63010;55.668;37.878;2022-10-16T07:07:26;13.07;;;6.75;;
74530;SDS011;63010;55.668;37.878;2022-10-16T07:09:51;15.10;;;7.22;;
74530;SDS011;63010;55.668;37.878;2022-10-16T07:12:17;11.10;;;6.85;;
74530;SDS011;63010;55.668;37.878;2022-10-16T07:14:43;12.50;;;6.65;;
74530;SDS011;63010;55.668;37.878;2022-10-16T07:17:08;16.60;;;7.38;;
74530;SDS011;63010;55.668;37.878;2022-10-16T07:19:34;18.98;;;7.30;;
74530;SDS011;63010;55.668;37.878;2022-10-16T07:22:00;14.27;;;6.78;;
74530;SDS011;63010;55.668;37.878;2022-10-16T07:24:26;14.55;;;7.07;;
74530;SDS011;63010;55.668;37.878;2022-10-16T07:26:51;10.80;;;6.38;;
74530;SDS011;63010;55.668;37.878;2022-10-16T07:29:18;13.10;;;6.35;;
74530;SDS011;63010;55.668;37.878;2022-10-16T07:31:45;11.77;;;6.25;;
74530;SDS011;63010;55.668;37.878;2022-10-16T07:36:38;11.65;;;6.53;;
74530;SDS011;63010;55.668;37.878;2022-10-16T07:39:04;17.75;;;7.55;;
74530;SDS011;63010;55.668;37.878;2022-10-16T07:41:30;17.20;;;8.85;;
74530;SDS011;63010;55.668;37.878;2022-10-16T07:43:57;14.55;;;7.60;;
74530;SDS011;63010;55.668;37.878;2022-10-16T07:46:25;20.40;;;7.70;;
74530;SDS011;63010;55.668;37.878;2022-10-16T07:48:51;21.67;;;10.23;;
74530;SDS011;63010;55.668;37.878;2022-10-16T07:51:18;23.98;;;10.95;;
74530;SDS011;63010;55.668;37.878;2022-10-16T07:53:45;12.50;;;7.65;;
74530;SDS011;63010;55.668;37.878;2022-10-16T07:56:12;16.45;;;7.45;;
74530;SDS011;63010;55.668;37.878;2022-10-16T07:58:38;17.00;;;6.80;;
74530;SDS011;63010;55.668;37.878;2022-10-16T08:01:04;14.82;;;6.85;;
74530;SDS011;63010;55.668;37.878;2022-10-16T08:03:31;9.02;;;5.88;;
74530;SDS011;63010;55.668;37.878;2022-10-16T08:05:57;10.00;;;6.07;;
74530;SDS011;63010;55.668;37.878;2022-10-16T08:08:23;10.50;;;6.63;;
74530;SDS011;63010;55.668;37.878;2022-10-16T08:10:49;12.43;;;7.70;;
74530;SDS011;63010;55.668;37.878;2022-10-16T08:13:14;11.57;;;6.30;;
74530;SDS011;63010;55.668;37.878;2022-10-16T08:15:44;9.15;;;5.43;;
74530;SDS011;63010;55.668;37.878;2022-10-16T08:18:11;15.60;;;7.20;;
74530;SDS011;63010;55.668;37.878;2022-10-16T08:20:38;20.08;;;10.55;;
74530;SDS011;63010;55.668;37.878;2022-10-16T08:23:04;17.17;;;7.15;;
74530;SDS011;63010;55.668;37.878;2022-10-16T08:25:30;8.77;;;5.78;;
74530;SDS011;63010;55.668;37.878;2022-10-16T08:27:55;14.73;;;6.60;;
74530;SDS011;63010;55.668;37.878;2022-10-16T08:30:22;12.88;;;6.80;;
74530;SDS011;63010;55.668;37.878;2022-10-16T08:32:49;12.80;;;6.80;;
74530;SDS011;63010;55.668;37.878;2022-10-16T08:35:15;10.95;;;6.50;;
74530;SDS011;63010;55.668;37.878;2022-10-16T08:37:41;11.85;;;7.03;;
74530;SDS011;63010;55.668;37.878;2022-10-16T08:40:11;12.55;;;6.82;;
74530;SDS011;63010;55.668;37.878;2022-10-16T08:45:33;12.95;;;7.13;;
74530;SDS011;63010;55.668;37.878;2022-10-16T08:50:44;14.82;;;7.32;;
74530;SDS011;63010;55.668;37.878;2022-10-16T08:53:30;13.95;;;5.78;;
74530;SDS011;63010;55.668;37.878;2022-10-16T08:56:03;13.10;;;6.60;;
74530;SDS011;63010;55.668;37.878;2022-10-16T08:58:30;11.70;;;7.22;;
74530;SDS011;63010;55.668;37.878;2022-10-16T09:00:56;12.77;;;6.13;;
74530;SDS011;63010;55.668;37.878;2022-10-16T09:16:39;15.02;;;5.65;;
74530;SDS011;63010;55.668;37.878;2022-10-16T09:19:30;12.88;;;6.15;;
74530;SDS011;63010;55.668;37.878;2022-10-16T09:22:04;13.13;;;6.07;;
74530;SDS011;63010;55.668;37.878;2022-10-16T09:24:37;9.52;;;5.70;;
74530;SDS011;63010;55.668;37.878;2022-10-16T09:27:03;7.97;;;4.90;;
74530;SDS011;63010;55.668;37.878;2022-10-16T09:29:28;10.95;;;5.63;;
74530;SDS011;63010;55.668;37.878;2022-10-16T09:34:35;9.25;;;5.53;;
74530;SDS011;63010;55.668;37.878;2022-10-16T09:37:04;12.73;;;5.40;;
74530;SDS011;63010;55.668;37.878;2022-10-16T09:42:31;11.18;;;5.03;;
74530;SDS011;63010;55.668;37.878;2022-10-16T09:45:00;11.93;;;5.10;;
74530;SDS011;63010;55.668;37.878;2022-10-16T09:47:29;11.70;;;5.13;;
74530;SDS011;63010;55.668;37.878;2022-10-16T09:49:57;12.32;;;4.35;;
74530;SDS011;63010;55.668;37.878;2022-10-16T09:52:29;9.32;;;4.07;;
74530;SDS011;63010;55.668;37.878;2022-10-16T09:54:57;7.53;;;3.10;;
74530;SDS011;63010;55.668;37.878;2022-10-16T09:57:25;9.32;;;3.58;;
74530;SDS011;63010;55.668;37.878;2022-10-16T09:59:52;8.85;;;3.33;;
74530;SDS011;63010;55.668;37.878;2022-10-16T10:02:35;9.00;;;3.50;;
74530;SDS011;63010;55.668;37.878;2022-10-16T10:05:06;8.77;;;3.20;;
74530;SDS011;63010;55.668;37.878;2022-10-16T10:07:44;10.00;;;3.50;;
74530;SDS011;63010;55.668;37.878;2022-10-16T10:10:47;8.35;;;3.15;;
74530;SDS011;63010;55.668;37.878;2022-10-16T10:13:19;8.30;;;3.35;;
74530;SDS011;63010;55.668;37.878;2022-10-16T10:15:47;9.30;;;3.00;;
74530;SDS011;63010;55.668;37.878;2022-10-16T10:18:20;7.38;;;3.10;;
74530;SDS011;63010;55.668;37.878;2022-10-16T10:20:57;5.13;;;2.83;;
74530;SDS011;63010;55.668;37.878;2022-10-16T10:23:29;7.32;;;2.72;;
74530;SDS011;63010;55.668;37.878;2022-10-16T10:26:10;8.25;;;3.17;;
74530;SDS011;63010;55.668;37.878;2022-10-16T10:31:29;7.03;;;3.22;;
74530;SDS011;63010;55.668;37.878;2022-10-16T10:42:02;7.22;;;3.60;;
74530;SDS011;63010;55.668;37.878;2022-10-16T10:47:44;6.93;;;3.38;;
74530;SDS011;63010;55.668;37.878;2022-10-16T10:50:24;6.85;;;3.28;;
74530;SDS011;63010;55.668;37.878;2022-10-16T11:08:41;8.23;;;3.53;;
74530;SDS011;63010;55.668;37.878;2022-10-16T11:11:14;10.00;;;4.18;;
74530;SDS011;63010;55.668;37.878;2022-10-16T11:19:11;5.70;;;3.50;;
74530;SDS011;63010;55.668;37.878;2022-10-16T11:21:53;5.55;;;3.47;;
74530;SDS011;63010;55.668;37.878;2022-10-16T11:24:41;7.65;;;4.10;;
74530;SDS011;63010;55.668;37.878;2022-10-16T11:27:08;9.05;;;3.80;;
74530;SDS011;63010;55.668;37.878;2022-10-16T11:29:43;7.32;;;3.15;;
74530;SDS011;63010;55.668;37.878;2022-10-16T11:32:22;10.80;;;4.43;;
74530;SDS011;63010;55.668;37.878;2022-10-16T11:34:56;10.52;;;4.18;;
74530;SDS011;63010;55.668;37.878;2022-10-16T11:37:27;6.88;;;4.13;;
74530;SDS011;63010;55.668;37.878;2022-10-16T11:40:02;9.60;;;3.80;;
74530;SDS011;63010;55.668;37.878;2022-10-16T11:42:53;10.98;;;4.03;;
74530;SDS011;63010;55.668;37.878;2022-10-16T11:45:29;8.93;;;4.63;;
74530;SDS011;63010;55.668;37.878;2022-10-16T11:56:08;7.05;;;3.78;;
74530;SDS011;63010;55.668;37.878;2022-10-16T11:58:41;7.57;;;3.38;;
74530;SDS011;63010;55.668;37.878;2022-10-16T12:01:21;5.60;;;2.95;;
74530;SDS011;63010;55.668;37.878;2022-10-16T12:03:51;5.25;;;3.22;;
74530;SDS011;63010;55.668;37.878;2022-10-16T12:06:46;4.63;;;3.20;;
74530;SDS011;63010;55.668;37.878;2022-10-16T12:09:36;6.45;;;3.40;;
74530;SDS011;63010;55.668;37.878;2022-10-16T12:12:04;6.75;;;2.97;;
74530;SDS011;63010;55.668;37.878;2022-10-16T12:14:47;11.75;;;3.53;;
74530;SDS011;63010;55.668;37.878;2022-10-16T12:17:23;9.13;;;4.10;;
74530;SDS011;63010;55.668;37.878;2022-10-16T12:19:59;5.78;;;3.03;;
74530;SDS011;63010;55.668;37.878;2022-10-16T12:22:41;6.03;;;3.25;;
74530;SDS011;63010;55.668;37.878;2022-10-16T12:28:22;9.07;;;2.83;;
74530;SDS011;63010;55.668;37.878;2022-10-16T12:30:40;6.30;;;3.50;;
74530;SDS011;63010;55.668;37.878;2022-10-16T12:35:56;6.70;;;3.20;;
74530;SDS011;63010;55.668;37.878;2022-10-16T12:38:25;7.05;;;2.83;;
74530;SDS011;63010;55.668;37.878;2022-10-16T12:40:57;8.93;;;2.97;;
74530;SDS011;63010;55.668;37.878;2022-10-16T12:43:35;9.80;;;3.67;;
74530;SDS011;63010;55.668;37.878;2022-10-16T12:46:48;8.40;;;2.97;;
74530;SDS011;63010;55.668;37.878;2022-10-16T12:49:04;7.60;;;3.10;;
74530;SDS011;63010;55.668;37.878;2022-10-16T12:51:41;7.68;;;2.95;;
74530;SDS011;63010;55.668;37.878;2022-10-16T12:54:15;8.20;;;2.92;;
74530;SDS011;63010;55.668;37.878;2022-10-16T12:56:46;5.70;;;2.95;;
74530;SDS011;63010;55.668;37.878;2022-10-16T13:10:19;6.75;;;3.10;;
74530;SDS011;63010;55.668;37.878;2022-10-16T13:18:18;9.40;;;4.25;;
74530;SDS011;63010;55.668;37.878;2022-10-16T13:20:56;8.90;;;4.95;;
74530;SDS011;63010;55.668;37.878;2022-10-16T13:24:00;10.15;;;4.00;;
74530;SDS011;63010;55.668;37.878;2022-10-16T13:29:14;11.02;;;3.75;;
74530;SDS011;63010;55.668;37.878;2022-10-16T13:31:40;8.13;;;4.70;;
74530;SDS011;63010;55.668;37.878;2022-10-16T13:34:12;10.32;;;4.40;;
74530;SDS011;63010;55.668;37.878;2022-10-16T13:36:45;8.70;;;3.75;;
74530;SDS011;63010;55.668;37.878;2022-10-16T13:41:46;9.07;;;3.70;;
74530;SDS011;63010;55.668;37.878;2022-10-16T13:44:28;6.80;;;3.13;;
74530;SDS011;63010;55.668;37.878;2022-10-16T13:47:02;11.50;;;3.40;;
74530;SDS011;63010;55.668;37.878;2022-10-16T13:49:28;8.65;;;3.63;;
74530;SDS011;63010;55.668;37.878;2022-10-16T13:51:54;8.93;;;3.60;;
74530;SDS011;63010;55.668;37.878;2022-10-16T13:54:25;11.45;;;3.95;;
74530;SDS011;63010;55.668;37.878;2022-10-16T13:56:52;12.80;;;4.28;;
74530;SDS011;63010;55.668;37.878;2022-10-16T13:59:24;17.35;;;6.60;;
74530;SDS011;63010;55.668;37.878;2022-10-16T14:01:55;26.73;;;9.20;;
74530;SDS011;63010;55.668;37.878;2022-10-16T14:04:22;26.27;;;7.25;;
74530;SDS011;63010;55.668;37.878;2022-10-16T14:06:49;28.27;;;8.73;;
74530;SDS011;63010;55.668;37.878;2022-10-16T14:09:23;15.73;;;7.45;;
74530;SDS011;63010;55.668;37.878;2022-10-16T14:12:07;15.90;;;7.15;;
74530;SDS011;63010;55.668;37.878;2022-10-16T14:14:40;11.23;;;6.13;;
74530;SDS011;63010;55.668;37.878;2022-10-16T14:17:15;16.05;;;5.93;;
74530;SDS011;63010;55.668;37.878;2022-10-16T14:19:52;13.85;;;5.53;;
74530;SDS011;63010;55.668;37.878;2022-10-16T14:22:23;17.63;;;6.47;;
74530;SDS011;63010;55.668;37.878;2022-10-16T14:24:49;11.60;;;5.18;;
74530;SDS011;63010;55.668;37.878;2022-10-16T14:32:40;13.85;;;5.05;;
74530;SDS011;63010;55.668;37.878;2022-10-16T14:37:54;11.95;;;5.60;;
74530;SDS011;63010;55.668;37.878;2022-10-16T14:40:31;12.95;;;5.85;;
74530;SDS011;63010;55.668;37.878;2022-10-16T14:42:59;14.32;;;5.00;;
74530;SDS011;63010;55.668;37.878;2022-10-16T14:45:27;12.20;;;6.22;;
74530;SDS011;63010;55.668;37.878;2022-10-16T14:48:02;9.80;;;4.75;;
74530;SDS011;63010;55.668;37.878;2022-10-16T14:50:31;12.98;;;4.97;;
74530;SDS011;63010;55.668;37.878;2022-10-16T14:52:57;9.95;;;4.97;;
74530;SDS011;63010;55.668;37.878;2022-10-16T14:55:23;12.25;;;5.00;;
74530;SDS011;63010;55.668;37.878;2022-10-16T14:57:50;12.02;;;6.95;;
74530;SDS011;63010;55.668;37.878;2022-10-16T15:00:20;13.80;;;5.13;;
74530;SDS011;63010;55.668;37.878;2022-10-16T15:02:48;11.93;;;4.82;;
74530;SDS011;63010;55.668;37.878;2022-10-16T15:07:42;11.77;;;5.40;;
74530;SDS011;63010;55.668;37.878;2022-10-16T15:10:07;10.57;;;4.88;;
74530;SDS011;63010;55.668;37.878;2022-10-16T15:12:34;11.50;;;5.53;;
74530;SDS011;63010;55.668;37.878;2022-10-16T15:14:59;9.82;;;4.93;;
74530;SDS011;63010;55.668;37.878;2022-10-16T15:17:25;9.23;;;5.30;;
74530;SDS011;63010;55.668;37.878;2022-10-16T15:19:50;13.90;;;6.00;;
74530;SDS011;63010;55.668;37.878;2022-10-16T15:22:16;11.60;;;5.05;;
74530;SDS011;63010;55.668;37.878;2022-10-16T15:24:42;12.98;;;5.88;;
74530;SDS011;63010;55.668;37.878;2022-10-16T15:27:08;18.98;;;7.00;;
74530;SDS011;63010;55.668;37.878;2022-10-16T15:29:34;15.38;;;6.40;;
74530;SDS011;63010;55.668;37.878;2022-10-16T15:31:59;14.18;;;6.32;;
74530;SDS011;63010;55.668;37.878;2022-10-16T15:34:25;22.20;;;7.53;;
74530;SDS011;63010;55.668;37.878;2022-10-16T15:36:50;17.38;;;7.45;;
74530;SDS011;63010;55.668;37.878;2022-10-16T15:39:17;11.45;;;6.00;;
74530;SDS011;63010;55.668;37.878;2022-10-16T15:41:45;9.10;;;4.10;;
74530;SDS011;63010;55.668;37.878;2022-10-16T15:44:18;10.85;;;4.35;;
74530;SDS011;63010;55.668;37.878;2022-10-16T15:46:45;10.75;;;4.45;;
74530;SDS011;63010;55.668;37.878;2022-10-16T15:51:38;11.05;;;4.80;;
74530;SDS011;63010;55.668;37.878;2022-10-16T15:54:04;10.60;;;4.78;;
74530;SDS011;63010;55.668;37.878;2022-10-16T15:56:30;9.48;;;4.75;;
74530;SDS011;63010;55.668;37.878;2022-10-16T15:58:58;8.23;;;5.38;;
74530;SDS011;63010;55.668;37.878;2022-10-16T16:03:53;10.65;;;5.32;;
74530;SDS011;63010;55.668;37.878;2022-10-16T16:06:19;10.80;;;4.40;;
74530;SDS011;63010;55.668;37.878;2022-10-16T16:08:45;10.10;;;5.05;;
74530;SDS011;63010;55.668;37.878;2022-10-16T16:11:12;11.68;;;5.15;;
74530;SDS011;63010;55.668;37.878;2022-10-16T16:13:39;14.60;;;5.70;;
74530;SDS011;63010;55.668;37.878;2022-10-16T16:16:06;10.25;;;6.43;;
74530;SDS011;63010;55.668;37.878;2022-10-16T16:18:36;12.82;;;6.65;;
74530;SDS011;63010;55.668;37.878;2022-10-16T16:21:02;11.68;;;5.88;;
74530;SDS011;63010;55.668;37.878;2022-10-16T16:23:28;11.73;;;5.40;;
74530;SDS011;63010;55.668;37.878;2022-10-16T16:26:07;12.73;;;6.50;;
74530;SDS011;63010;55.668;37.878;2022-10-16T16:28:37;12.55;;;6.55;;
74530;SDS011;63010;55.668;37.878;2022-10-16T16:31:03;13.55;;;6.38;;
74530;SDS011;63010;55.668;37.878;2022-10-16T16:33:29;9.80;;;5.68;;
74530;SDS011;63010;55.668;37.878;2022-10-16T16:38:25;12.30;;;5.15;;
74530;SDS011;63010;55.668;37.878;2022-10-16T16:40:52;11.98;;;5.60;;
74530;SDS011;63010;55.668;37.878;2022-10-16T16:43:18;10.60;;;5.50;;
74530;SDS011;63010;55.668;37.878;2022-10-16T16:45:44;13.43;;;5.85;;
74530;SDS011;63010;55.668;37.878;2022-10-16T16:48:09;13.38;;;5.65;;
74530;SDS011;63010;55.668;37.878;2022-10-16T16:50:38;12.10;;;5.88;;
74530;SDS011;63010;55.668;37.878;2022-10-16T16:53:04;10.35;;;5.88;;